sensor_id;sensor_type;location;lat;lon;timestamp;P1;durP1;ratioP1;P2;durP2;ratioP2
14191;SDS011;7177;48.572;7.838;2024-01-27T00:01:30;9.23;;;4.20;;
14191;SDS011;7177;48.572;7.838;2024-01-27T00:03:55;14.50;;;4.57;;
14191;SDS011;7177;48.572;7.838;2024-01-27T00:06:21;9.10;;;4.73;;
14191;SDS011;7177;48.572;7.838;2024-01-27T00:08:47;16.03;;;9.87;;
14191;SDS011;7177;48.572;7.838;2024-01-27T00:11:12;15.87;;;8.77;;
14191;SDS011;7177;48.572;7.838;2024-01-27T00:13:38;11.00;;;7.20;;
14191;SDS011;7177;48.572;7.838;2024-01-27T00:16:03;8.97;;;5.53;;
14191;SDS011;7177;48.572;7.838;2024-01-27T00:18:29;9.90;;;5.57;;
14191;SDS011;7177;48.572;7.838;2024-01-27T00:20:55;8.10;;;4.93;;
14191;SDS011;7177;48.572;7.838;2024-01-27T00:23:20;10.33;;;5.73;;
14191;SDS011;7177;48.572;7.838;2024-01-27T00:25:46;11.53;;;6.53;;
14191;SDS011;7177;48.572;7.838;2024-01-27T00:28:11;10.30;;;5.87;;
14191;SDS011;7177;48.572;7.838;2024-01-27T00:30:37;8.53;;;4.47;;
14191;SDS011;7177;48.572;7.838;2024-01-27T00:33:02;9.70;;;4.43;;
14191;SDS011;7177;48.572;7.838;2024-01-27T00:35:28;7.70;;;3.90;;
14191;SDS011;7177;48.572;7.838;2024-01-27T00:37:53;8.00;;;3.80;;
14191;SDS011;7177;48.572;7.838;2024-01-27T00:40:19;10.43;;;4.73;;
14191;SDS011;7177;48.572;7.838;2024-01-27T00:42:44;8.03;;;4.53;;
14191;SDS011;7177;48.572;7.838;2024-01-27T00:45:10;6.60;;;4.13;;
14191;SDS011;7177;48.572;7.838;2024-01-27T00:47:35;5.97;;;4.03;;
14191;SDS011;7177;48.572;7.838;2024-01-27T00:50:01;8.67;;;4.90;;
14191;SDS011;7177;48.572;7.838;2024-01-27T00:52:27;8.00;;;5.57;;
14191;SDS011;7177;48.572;7.838;2024-01-27T00:54:52;7.43;;;5.33;;
14191;SDS011;7177;48.572;7.838;2024-01-27T00:57:18;9.40;;;5.73;;
14191;SDS011;7177;48.572;7.838;2024-01-27T00:59:43;9.03;;;4.93;;
14191;SDS011;7177;48.572;7.838;2024-01-27T01:02:09;9.07;;;5.20;;
14191;SDS011;7177;48.572;7.838;2024-01-27T01:04:34;9.57;;;5.97;;
14191;SDS011;7177;48.572;7.838;2024-01-27T01:07:00;9.27;;;5.40;;
14191;SDS011;7177;48.572;7.838;2024-01-27T01:09:25;7.27;;;5.13;;
14191;SDS011;7177;48.572;7.838;2024-01-27T01:11:51;9.17;;;5.43;;
14191;SDS011;7177;48.572;7.838;2024-01-27T01:14:16;9.27;;;5.23;;
14191;SDS011;7177;48.572;7.838;2024-01-27T01:16:42;8.80;;;5.40;;
14191;SDS011;7177;48.572;7.838;2024-01-27T01:19:08;12.47;;;5.13;;
14191;SDS011;7177;48.572;7.838;2024-01-27T01:21:33;10.27;;;5.87;;
14191;SDS011;7177;48.572;7.838;2024-01-27T01:23:59;10.70;;;5.33;;
14191;SDS011;7177;48.572;7.838;2024-01-27T01:26:24;7.83;;;4.30;;
14191;SDS011;7177;48.572;7.838;2024-01-27T01:28:50;7.83;;;4.77;;
14191;SDS011;7177;48.572;7.838;2024-01-27T01:31:16;6.82;;;4.68;;
14191;SDS011;7177;48.572;7.838;2024-01-27T01:33:42;7.00;;;4.37;;
14191;SDS011;7177;48.572;7.838;2024-01-27T01:36:08;7.18;;;5.40;;
14191;SDS011;7177;48.572;7.838;2024-01-27T01:38:33;9.90;;;5.20;;
14191;SDS011;7177;48.572;7.838;2024-01-27T01:40:59;8.00;;;5.53;;
14191;SDS011;7177;48.572;7.838;2024-01-27T01:43:25;9.70;;;5.20;;
14191;SDS011;7177;48.572;7.838;2024-01-27T01:45:50;12.47;;;5.57;;
14191;SDS011;7177;48.572;7.838;2024-01-27T01:48:18;10.30;;;5.50;;
14191;SDS011;7177;48.572;7.838;2024-01-27T01:50:44;8.52;;;6.25;;
14191;SDS011;7177;48.572;7.838;2024-01-27T01:53:10;9.90;;;5.32;;
14191;SDS011;7177;48.572;7.838;2024-01-27T01:55:37;8.60;;;6.07;;
14191;SDS011;7177;48.572;7.838;2024-01-27T01:58:03;9.83;;;6.60;;
14191;SDS011;7177;48.572;7.838;2024-01-27T02:00:29;8.25;;;5.75;;
14191;SDS011;7177;48.572;7.838;2024-01-27T02:02:55;10.13;;;6.33;;
14191;SDS011;7177;48.572;7.838;2024-01-27T02:05:20;7.60;;;4.97;;
14191;SDS011;7177;48.572;7.838;2024-01-27T02:07:46;10.67;;;5.17;;
14191;SDS011;7177;48.572;7.838;2024-01-27T02:10:15;8.43;;;5.03;;
14191;SDS011;7177;48.572;7.838;2024-01-27T02:12:44;7.97;;;5.50;;
14191;SDS011;7177;48.572;7.838;2024-01-27T02:15:11;6.25;;;4.57;;
14191;SDS011;7177;48.572;7.838;2024-01-27T02:17:40;7.47;;;5.57;;
14191;SDS011;7177;48.572;7.838;2024-01-27T02:20:06;9.15;;;5.30;;
14191;SDS011;7177;48.572;7.838;2024-01-27T02:22:33;7.20;;;5.32;;
14191;SDS011;7177;48.572;7.838;2024-01-27T02:24:59;8.85;;;6.07;;
14191;SDS011;7177;48.572;7.838;2024-01-27T02:27:24;9.60;;;5.90;;
14191;SDS011;7177;48.572;7.838;2024-01-27T02:29:50;13.90;;;6.07;;
14191;SDS011;7177;48.572;7.838;2024-01-27T02:32:16;15.60;;;7.70;;
14191;SDS011;7177;48.572;7.838;2024-01-27T02:34:41;13.20;;;6.57;;
14191;SDS011;7177;48.572;7.838;2024-01-27T02:37:07;8.40;;;6.07;;
14191;SDS011;7177;48.572;7.838;2024-01-27T02:39:32;9.63;;;5.80;;
14191;SDS011;7177;48.572;7.838;2024-01-27T02:41:58;9.03;;;6.23;;
14191;SDS011;7177;48.572;7.838;2024-01-27T02:44:23;10.07;;;6.10;;
14191;SDS011;7177;48.572;7.838;2024-01-27T02:46:49;9.33;;;6.33;;
14191;SDS011;7177;48.572;7.838;2024-01-27T02:49:14;11.40;;;6.70;;
14191;SDS011;7177;48.572;7.838;2024-01-27T02:51:40;9.63;;;5.90;;
14191;SDS011;7177;48.572;7.838;2024-01-27T02:54:05;9.20;;;6.50;;
14191;SDS011;7177;48.572;7.838;2024-01-27T02:56:31;8.90;;;6.23;;
14191;SDS011;7177;48.572;7.838;2024-01-27T02:58:56;9.57;;;6.37;;
14191;SDS011;7177;48.572;7.838;2024-01-27T03:01:22;9.00;;;6.40;;
14191;SDS011;7177;48.572;7.838;2024-01-27T03:03:47;10.90;;;6.57;;
14191;SDS011;7177;48.572;7.838;2024-01-27T03:06:14;14.52;;;8.13;;
14191;SDS011;7177;48.572;7.838;2024-01-27T03:08:39;10.40;;;6.60;;
14191;SDS011;7177;48.572;7.838;2024-01-27T03:11:05;8.77;;;6.60;;
14191;SDS011;7177;48.572;7.838;2024-01-27T03:13:30;9.90;;;6.23;;
14191;SDS011;7177;48.572;7.838;2024-01-27T03:15:56;7.70;;;6.00;;
14191;SDS011;7177;48.572;7.838;2024-01-27T03:18:21;8.53;;;5.83;;
14191;SDS011;7177;48.572;7.838;2024-01-27T03:20:47;12.20;;;7.40;;
14191;SDS011;7177;48.572;7.838;2024-01-27T03:23:13;13.20;;;6.82;;
14191;SDS011;7177;48.572;7.838;2024-01-27T03:25:38;10.97;;;6.80;;
14191;SDS011;7177;48.572;7.838;2024-01-27T03:28:04;11.33;;;6.67;;
14191;SDS011;7177;48.572;7.838;2024-01-27T03:30:29;14.13;;;7.10;;
14191;SDS011;7177;48.572;7.838;2024-01-27T03:32:55;10.10;;;6.47;;
14191;SDS011;7177;48.572;7.838;2024-01-27T03:35:20;10.17;;;6.67;;
14191;SDS011;7177;48.572;7.838;2024-01-27T03:37:46;8.83;;;6.17;;
14191;SDS011;7177;48.572;7.838;2024-01-27T03:40:12;9.10;;;6.40;;
14191;SDS011;7177;48.572;7.838;2024-01-27T03:42:37;9.23;;;6.37;;
14191;SDS011;7177;48.572;7.838;2024-01-27T03:45:03;11.57;;;6.83;;
14191;SDS011;7177;48.572;7.838;2024-01-27T03:47:29;7.97;;;6.07;;
14191;SDS011;7177;48.572;7.838;2024-01-27T03:49:54;9.20;;;6.43;;
14191;SDS011;7177;48.572;7.838;2024-01-27T03:52:20;12.23;;;6.60;;
14191;SDS011;7177;48.572;7.838;2024-01-27T03:54:45;12.53;;;6.97;;
14191;SDS011;7177;48.572;7.838;2024-01-27T03:57:11;11.53;;;7.07;;
14191;SDS011;7177;48.572;7.838;2024-01-27T03:59:36;9.93;;;6.43;;
14191;SDS011;7177;48.572;7.838;2024-01-27T04:02:04;8.45;;;6.10;;
14191;SDS011;7177;48.572;7.838;2024-01-27T04:04:30;9.07;;;6.23;;
14191;SDS011;7177;48.572;7.838;2024-01-27T04:06:55;6.93;;;5.50;;
14191;SDS011;7177;48.572;7.838;2024-01-27T04:09:21;12.20;;;7.20;;
14191;SDS011;7177;48.572;7.838;2024-01-27T04:11:46;12.00;;;7.43;;
14191;SDS011;7177;48.572;7.838;2024-01-27T04:14:12;9.70;;;6.70;;
14191;SDS011;7177;48.572;7.838;2024-01-27T04:16:37;10.07;;;6.77;;
14191;SDS011;7177;48.572;7.838;2024-01-27T04:19:03;12.50;;;7.83;;
14191;SDS011;7177;48.572;7.838;2024-01-27T04:21:29;14.70;;;8.70;;
14191;SDS011;7177;48.572;7.838;2024-01-27T04:23:54;9.10;;;7.30;;
14191;SDS011;7177;48.572;7.838;2024-01-27T04:26:20;10.23;;;7.57;;
14191;SDS011;7177;48.572;7.838;2024-01-27T04:28:45;9.07;;;7.23;;
14191;SDS011;7177;48.572;7.838;2024-01-27T04:31:11;9.03;;;6.83;;
14191;SDS011;7177;48.572;7.838;2024-01-27T04:33:36;9.40;;;6.80;;
14191;SDS011;7177;48.572;7.838;2024-01-27T04:36:02;7.80;;;6.37;;
14191;SDS011;7177;48.572;7.838;2024-01-27T04:38:28;10.70;;;7.67;;
14191;SDS011;7177;48.572;7.838;2024-01-27T04:40:53;9.30;;;6.63;;
14191;SDS011;7177;48.572;7.838;2024-01-27T04:43:19;10.90;;;7.00;;
14191;SDS011;7177;48.572;7.838;2024-01-27T04:45:47;10.43;;;7.85;;
14191;SDS011;7177;48.572;7.838;2024-01-27T04:48:14;7.85;;;6.95;;
14191;SDS011;7177;48.572;7.838;2024-01-27T04:50:40;14.40;;;7.67;;
14191;SDS011;7177;48.572;7.838;2024-01-27T04:53:06;8.50;;;7.00;;
14191;SDS011;7177;48.572;7.838;2024-01-27T04:55:31;8.10;;;6.80;;
14191;SDS011;7177;48.572;7.838;2024-01-27T04:57:57;8.33;;;6.90;;
14191;SDS011;7177;48.572;7.838;2024-01-27T05:00:23;11.02;;;7.38;;
14191;SDS011;7177;48.572;7.838;2024-01-27T05:02:51;11.75;;;8.05;;
14191;SDS011;7177;48.572;7.838;2024-01-27T05:05:17;11.80;;;7.77;;
14191;SDS011;7177;48.572;7.838;2024-01-27T05:07:42;10.63;;;7.50;;
14191;SDS011;7177;48.572;7.838;2024-01-27T05:10:10;8.07;;;7.10;;
14191;SDS011;7177;48.572;7.838;2024-01-27T05:12:36;11.40;;;7.18;;
14191;SDS011;7177;48.572;7.838;2024-01-27T05:15:02;11.33;;;7.27;;
14191;SDS011;7177;48.572;7.838;2024-01-27T05:17:27;10.50;;;7.67;;
14191;SDS011;7177;48.572;7.838;2024-01-27T05:19:53;9.73;;;7.67;;
14191;SDS011;7177;48.572;7.838;2024-01-27T05:22:18;8.00;;;7.20;;
14191;SDS011;7177;48.572;7.838;2024-01-27T05:24:44;6.63;;;5.90;;
14191;SDS011;7177;48.572;7.838;2024-01-27T05:27:09;8.43;;;6.90;;
14191;SDS011;7177;48.572;7.838;2024-01-27T05:29:36;9.63;;;6.87;;
14191;SDS011;7177;48.572;7.838;2024-01-27T05:32:02;9.00;;;7.10;;
14191;SDS011;7177;48.572;7.838;2024-01-27T05:34:28;8.57;;;6.63;;
14191;SDS011;7177;48.572;7.838;2024-01-27T05:36:53;9.93;;;6.60;;
14191;SDS011;7177;48.572;7.838;2024-01-27T05:39:19;11.90;;;7.67;;
14191;SDS011;7177;48.572;7.838;2024-01-27T05:41:44;10.27;;;6.93;;
14191;SDS011;7177;48.572;7.838;2024-01-27T05:44:10;8.80;;;6.30;;
14191;SDS011;7177;48.572;7.838;2024-01-27T05:46:35;12.27;;;8.27;;
14191;SDS011;7177;48.572;7.838;2024-01-27T05:49:01;10.60;;;7.47;;
14191;SDS011;7177;48.572;7.838;2024-01-27T05:51:28;10.35;;;8.15;;
14191;SDS011;7177;48.572;7.838;2024-01-27T05:53:55;11.75;;;8.13;;
14191;SDS011;7177;48.572;7.838;2024-01-27T05:56:21;9.60;;;6.83;;
14191;SDS011;7177;48.572;7.838;2024-01-27T05:58:46;19.87;;;7.77;;
14191;SDS011;7177;48.572;7.838;2024-01-27T06:01:12;8.13;;;6.82;;
14191;SDS011;7177;48.572;7.838;2024-01-27T06:03:38;7.63;;;6.83;;
14191;SDS011;7177;48.572;7.838;2024-01-27T06:06:06;10.55;;;7.00;;
14191;SDS011;7177;48.572;7.838;2024-01-27T06:08:32;8.80;;;6.70;;
14191;SDS011;7177;48.572;7.838;2024-01-27T06:10:57;8.77;;;7.17;;
14191;SDS011;7177;48.572;7.838;2024-01-27T06:13:23;8.03;;;7.03;;
14191;SDS011;7177;48.572;7.838;2024-01-27T06:15:48;11.03;;;8.67;;
14191;SDS011;7177;48.572;7.838;2024-01-27T06:18:14;12.00;;;9.13;;
14191;SDS011;7177;48.572;7.838;2024-01-27T06:20:39;13.00;;;10.00;;
14191;SDS011;7177;48.572;7.838;2024-01-27T06:23:05;14.98;;;10.93;;
14191;SDS011;7177;48.572;7.838;2024-01-27T06:25:31;17.83;;;12.67;;
14191;SDS011;7177;48.572;7.838;2024-01-27T06:27:57;19.50;;;13.52;;
14191;SDS011;7177;48.572;7.838;2024-01-27T06:30:22;35.63;;;23.63;;
14191;SDS011;7177;48.572;7.838;2024-01-27T06:32:48;27.40;;;19.40;;
14191;SDS011;7177;48.572;7.838;2024-01-27T06:35:14;26.67;;;20.00;;
14191;SDS011;7177;48.572;7.838;2024-01-27T06:37:39;24.57;;;18.07;;
14191;SDS011;7177;48.572;7.838;2024-01-27T06:40:05;33.87;;;23.73;;
14191;SDS011;7177;48.572;7.838;2024-01-27T06:42:32;31.63;;;22.60;;
14191;SDS011;7177;48.572;7.838;2024-01-27T06:44:57;26.93;;;20.00;;
14191;SDS011;7177;48.572;7.838;2024-01-27T06:47:23;23.53;;;17.53;;
14191;SDS011;7177;48.572;7.838;2024-01-27T06:49:48;18.70;;;13.83;;
14191;SDS011;7177;48.572;7.838;2024-01-27T06:52:14;17.50;;;13.27;;
14191;SDS011;7177;48.572;7.838;2024-01-27T06:54:39;17.80;;;13.70;;
14191;SDS011;7177;48.572;7.838;2024-01-27T06:57:17;18.45;;;15.10;;
14191;SDS011;7177;48.572;7.838;2024-01-27T06:59:43;17.55;;;12.73;;
14191;SDS011;7177;48.572;7.838;2024-01-27T07:02:09;13.80;;;11.43;;
14191;SDS011;7177;48.572;7.838;2024-01-27T07:04:38;16.80;;;11.13;;
14191;SDS011;7177;48.572;7.838;2024-01-27T07:07:04;14.10;;;10.57;;
14191;SDS011;7177;48.572;7.838;2024-01-27T07:09:30;12.77;;;9.90;;
14191;SDS011;7177;48.572;7.838;2024-01-27T07:11:55;13.23;;;10.13;;
14191;SDS011;7177;48.572;7.838;2024-01-27T07:14:21;18.17;;;12.70;;
14191;SDS011;7177;48.572;7.838;2024-01-27T07:16:46;20.30;;;15.03;;
14191;SDS011;7177;48.572;7.838;2024-01-27T07:19:12;15.57;;;12.30;;
14191;SDS011;7177;48.572;7.838;2024-01-27T07:21:38;23.38;;;15.88;;
14191;SDS011;7177;48.572;7.838;2024-01-27T07:24:04;29.30;;;20.13;;
14191;SDS011;7177;48.572;7.838;2024-01-27T07:26:29;22.40;;;17.47;;
14191;SDS011;7177;48.572;7.838;2024-01-27T07:28:56;20.23;;;15.55;;
14191;SDS011;7177;48.572;7.838;2024-01-27T07:31:22;18.38;;;14.60;;
14191;SDS011;7177;48.572;7.838;2024-01-27T07:33:49;19.38;;;14.82;;
14191;SDS011;7177;48.572;7.838;2024-01-27T07:36:15;21.57;;;15.20;;
14191;SDS011;7177;48.572;7.838;2024-01-27T07:38:41;22.50;;;15.38;;
14191;SDS011;7177;48.572;7.838;2024-01-27T07:41:06;20.83;;;14.67;;
14191;SDS011;7177;48.572;7.838;2024-01-27T07:43:32;18.50;;;13.37;;
14191;SDS011;7177;48.572;7.838;2024-01-27T07:45:57;23.23;;;15.87;;
14191;SDS011;7177;48.572;7.838;2024-01-27T07:48:23;33.23;;;21.13;;
14191;SDS011;7177;48.572;7.838;2024-01-27T07:50:48;91.40;;;55.30;;
14191;SDS011;7177;48.572;7.838;2024-01-27T07:53:15;60.42;;;44.70;;
14191;SDS011;7177;48.572;7.838;2024-01-27T07:55:41;36.07;;;29.13;;
14191;SDS011;7177;48.572;7.838;2024-01-27T07:58:06;23.10;;;19.80;;
14191;SDS011;7177;48.572;7.838;2024-01-27T08:00:32;14.40;;;12.90;;
14191;SDS011;7177;48.572;7.838;2024-01-27T08:02:57;12.13;;;10.20;;
14191;SDS011;7177;48.572;7.838;2024-01-27T08:05:23;9.77;;;8.73;;
14191;SDS011;7177;48.572;7.838;2024-01-27T08:07:48;9.73;;;7.77;;
14191;SDS011;7177;48.572;7.838;2024-01-27T08:10:14;9.20;;;6.97;;
14191;SDS011;7177;48.572;7.838;2024-01-27T08:12:40;11.13;;;7.63;;
14191;SDS011;7177;48.572;7.838;2024-01-27T08:15:06;10.30;;;7.60;;
14191;SDS011;7177;48.572;7.838;2024-01-27T08:17:32;7.80;;;6.60;;
14191;SDS011;7177;48.572;7.838;2024-01-27T08:19:57;8.87;;;6.60;;
14191;SDS011;7177;48.572;7.838;2024-01-27T08:22:24;8.35;;;6.65;;
14191;SDS011;7177;48.572;7.838;2024-01-27T08:24:50;7.80;;;7.00;;
14191;SDS011;7177;48.572;7.838;2024-01-27T08:27:15;7.53;;;6.43;;
14191;SDS011;7177;48.572;7.838;2024-01-27T08:29:41;15.70;;;10.20;;
14191;SDS011;7177;48.572;7.838;2024-01-27T08:32:06;14.30;;;9.33;;
14191;SDS011;7177;48.572;7.838;2024-01-27T08:34:32;14.20;;;9.80;;
14191;SDS011;7177;48.572;7.838;2024-01-27T08:36:59;13.80;;;10.30;;
14191;SDS011;7177;48.572;7.838;2024-01-27T08:39:25;11.67;;;8.03;;
14191;SDS011;7177;48.572;7.838;2024-01-27T08:41:51;11.80;;;8.73;;
14191;SDS011;7177;48.572;7.838;2024-01-27T08:44:16;11.10;;;8.10;;
14191;SDS011;7177;48.572;7.838;2024-01-27T08:46:42;13.43;;;8.70;;
14191;SDS011;7177;48.572;7.838;2024-01-27T08:49:07;13.93;;;9.00;;
14191;SDS011;7177;48.572;7.838;2024-01-27T08:51:33;13.87;;;9.30;;
14191;SDS011;7177;48.572;7.838;2024-01-27T08:53:59;15.00;;;10.00;;
14191;SDS011;7177;48.572;7.838;2024-01-27T08:56:25;14.53;;;9.03;;
14191;SDS011;7177;48.572;7.838;2024-01-27T08:58:50;12.50;;;7.60;;
14191;SDS011;7177;48.572;7.838;2024-01-27T09:01:17;15.17;;;7.97;;
14191;SDS011;7177;48.572;7.838;2024-01-27T09:03:43;13.90;;;7.93;;
14191;SDS011;7177;48.572;7.838;2024-01-27T09:06:08;13.10;;;8.10;;
14191;SDS011;7177;48.572;7.838;2024-01-27T09:08:34;14.93;;;8.40;;
14191;SDS011;7177;48.572;7.838;2024-01-27T09:11:00;10.73;;;6.80;;
14191;SDS011;7177;48.572;7.838;2024-01-27T09:13:27;10.37;;;6.20;;
14191;SDS011;7177;48.572;7.838;2024-01-27T09:15:52;10.20;;;6.83;;
14191;SDS011;7177;48.572;7.838;2024-01-27T09:18:18;11.57;;;6.27;;
14191;SDS011;7177;48.572;7.838;2024-01-27T09:20:43;13.90;;;7.80;;
14191;SDS011;7177;48.572;7.838;2024-01-27T09:23:09;10.50;;;7.63;;
14191;SDS011;7177;48.572;7.838;2024-01-27T09:25:34;10.30;;;7.33;;
14191;SDS011;7177;48.572;7.838;2024-01-27T09:28:00;11.53;;;6.67;;
14191;SDS011;7177;48.572;7.838;2024-01-27T09:30:26;11.50;;;6.57;;
14191;SDS011;7177;48.572;7.838;2024-01-27T09:32:52;9.17;;;6.03;;
14191;SDS011;7177;48.572;7.838;2024-01-27T09:35:17;9.53;;;6.00;;
14191;SDS011;7177;48.572;7.838;2024-01-27T09:37:43;9.70;;;6.70;;
14191;SDS011;7177;48.572;7.838;2024-01-27T09:40:11;10.10;;;6.33;;
14191;SDS011;7177;48.572;7.838;2024-01-27T09:42:37;10.20;;;7.00;;
14191;SDS011;7177;48.572;7.838;2024-01-27T09:45:06;9.93;;;7.23;;
14191;SDS011;7177;48.572;7.838;2024-01-27T09:47:33;9.30;;;6.83;;
14191;SDS011;7177;48.572;7.838;2024-01-27T09:50:00;11.30;;;7.03;;
14191;SDS011;7177;48.572;7.838;2024-01-27T09:52:26;10.77;;;6.63;;
14191;SDS011;7177;48.572;7.838;2024-01-27T09:54:51;9.83;;;7.13;;
14191;SDS011;7177;48.572;7.838;2024-01-27T09:57:17;10.57;;;6.63;;
14191;SDS011;7177;48.572;7.838;2024-01-27T09:59:45;10.87;;;6.70;;
14191;SDS011;7177;48.572;7.838;2024-01-27T10:02:11;8.93;;;6.00;;
14191;SDS011;7177;48.572;7.838;2024-01-27T10:04:39;11.50;;;7.43;;
14191;SDS011;7177;48.572;7.838;2024-01-27T10:07:06;10.17;;;6.50;;
14191;SDS011;7177;48.572;7.838;2024-01-27T10:09:32;11.73;;;6.80;;
14191;SDS011;7177;48.572;7.838;2024-01-27T10:11:57;12.37;;;7.10;;
14191;SDS011;7177;48.572;7.838;2024-01-27T10:14:26;9.97;;;6.00;;
14191;SDS011;7177;48.572;7.838;2024-01-27T10:17:02;7.63;;;5.93;;
14191;SDS011;7177;48.572;7.838;2024-01-27T10:19:27;12.17;;;6.43;;
14191;SDS011;7177;48.572;7.838;2024-01-27T10:21:59;12.43;;;6.00;;
14191;SDS011;7177;48.572;7.838;2024-01-27T10:24:27;10.60;;;6.73;;
14191;SDS011;7177;48.572;7.838;2024-01-27T10:26:58;9.40;;;6.07;;
14191;SDS011;7177;48.572;7.838;2024-01-27T10:29:27;8.70;;;5.60;;
14191;SDS011;7177;48.572;7.838;2024-01-27T10:31:53;9.93;;;5.97;;
14191;SDS011;7177;48.572;7.838;2024-01-27T10:34:21;8.53;;;5.70;;
14191;SDS011;7177;48.572;7.838;2024-01-27T10:36:47;10.33;;;5.73;;
14191;SDS011;7177;48.572;7.838;2024-01-27T10:39:22;11.83;;;6.50;;
14191;SDS011;7177;48.572;7.838;2024-01-27T10:41:49;9.83;;;5.70;;
14191;SDS011;7177;48.572;7.838;2024-01-27T10:44:16;10.93;;;5.60;;
14191;SDS011;7177;48.572;7.838;2024-01-27T10:46:43;10.67;;;5.10;;
14191;SDS011;7177;48.572;7.838;2024-01-27T10:49:14;9.77;;;5.27;;
14191;SDS011;7177;48.572;7.838;2024-01-27T10:51:45;10.17;;;5.67;;
14191;SDS011;7177;48.572;7.838;2024-01-27T10:54:20;8.57;;;5.70;;
14191;SDS011;7177;48.572;7.838;2024-01-27T10:56:51;9.83;;;5.73;;
14191;SDS011;7177;48.572;7.838;2024-01-27T10:59:19;8.27;;;4.90;;
14191;SDS011;7177;48.572;7.838;2024-01-27T11:01:47;9.47;;;5.30;;
14191;SDS011;7177;48.572;7.838;2024-01-27T11:04:17;10.77;;;5.20;;
14191;SDS011;7177;48.572;7.838;2024-01-27T11:06:44;8.37;;;4.97;;
14191;SDS011;7177;48.572;7.838;2024-01-27T11:09:12;12.23;;;6.37;;
14191;SDS011;7177;48.572;7.838;2024-01-27T11:11:39;17.97;;;8.63;;
14191;SDS011;7177;48.572;7.838;2024-01-27T11:14:07;16.73;;;8.60;;
14191;SDS011;7177;48.572;7.838;2024-01-27T11:16:34;12.70;;;7.33;;
14191;SDS011;7177;48.572;7.838;2024-01-27T11:19:00;12.33;;;6.37;;
14191;SDS011;7177;48.572;7.838;2024-01-27T11:21:27;12.70;;;5.70;;
14191;SDS011;7177;48.572;7.838;2024-01-27T11:23:52;11.47;;;5.60;;
14191;SDS011;7177;48.572;7.838;2024-01-27T11:26:21;10.23;;;5.40;;
14191;SDS011;7177;48.572;7.838;2024-01-27T11:28:48;11.13;;;5.63;;
14191;SDS011;7177;48.572;7.838;2024-01-27T11:31:15;10.37;;;6.00;;
14191;SDS011;7177;48.572;7.838;2024-01-27T11:33:44;8.20;;;5.00;;
14191;SDS011;7177;48.572;7.838;2024-01-27T11:36:18;9.63;;;6.27;;
14191;SDS011;7177;48.572;7.838;2024-01-27T11:38:48;8.83;;;5.77;;
14191;SDS011;7177;48.572;7.838;2024-01-27T11:41:23;9.63;;;6.03;;
14191;SDS011;7177;48.572;7.838;2024-01-27T11:43:55;8.90;;;5.40;;
14191;SDS011;7177;48.572;7.838;2024-01-27T11:46:22;10.10;;;5.70;;
14191;SDS011;7177;48.572;7.838;2024-01-27T11:48:48;11.07;;;5.47;;
14191;SDS011;7177;48.572;7.838;2024-01-27T11:51:14;10.20;;;5.13;;
14191;SDS011;7177;48.572;7.838;2024-01-27T11:53:40;8.33;;;4.97;;
14191;SDS011;7177;48.572;7.838;2024-01-27T11:56:06;15.53;;;5.67;;
14191;SDS011;7177;48.572;7.838;2024-01-27T11:58:32;12.83;;;6.50;;
14191;SDS011;7177;48.572;7.838;2024-01-27T12:00:57;11.10;;;6.27;;
14191;SDS011;7177;48.572;7.838;2024-01-27T12:03:23;17.23;;;6.10;;
14191;SDS011;7177;48.572;7.838;2024-01-27T12:05:50;13.00;;;6.33;;
14191;SDS011;7177;48.572;7.838;2024-01-27T12:08:16;9.67;;;5.37;;
14191;SDS011;7177;48.572;7.838;2024-01-27T12:10:42;9.40;;;5.40;;
14191;SDS011;7177;48.572;7.838;2024-01-27T12:13:07;19.97;;;6.40;;
14191;SDS011;7177;48.572;7.838;2024-01-27T12:15:33;9.10;;;5.90;;
14191;SDS011;7177;48.572;7.838;2024-01-27T12:17:58;10.23;;;5.47;;
14191;SDS011;7177;48.572;7.838;2024-01-27T12:20:24;8.17;;;4.63;;
14191;SDS011;7177;48.572;7.838;2024-01-27T12:22:50;9.57;;;5.17;;
14191;SDS011;7177;48.572;7.838;2024-01-27T12:25:26;9.07;;;5.40;;
14191;SDS011;7177;48.572;7.838;2024-01-27T12:27:52;11.93;;;5.43;;
14191;SDS011;7177;48.572;7.838;2024-01-27T12:30:17;8.53;;;4.67;;
14191;SDS011;7177;48.572;7.838;2024-01-27T12:32:43;8.63;;;4.67;;
14191;SDS011;7177;48.572;7.838;2024-01-27T12:35:09;9.50;;;4.90;;
14191;SDS011;7177;48.572;7.838;2024-01-27T12:37:34;8.13;;;4.13;;
14191;SDS011;7177;48.572;7.838;2024-01-27T12:40:01;7.63;;;3.60;;
14191;SDS011;7177;48.572;7.838;2024-01-27T12:42:26;7.53;;;3.90;;
14191;SDS011;7177;48.572;7.838;2024-01-27T12:44:52;6.40;;;3.73;;
14191;SDS011;7177;48.572;7.838;2024-01-27T12:47:18;16.60;;;10.60;;
14191;SDS011;7177;48.572;7.838;2024-01-27T12:49:44;7.80;;;4.50;;
14191;SDS011;7177;48.572;7.838;2024-01-27T12:52:10;8.23;;;4.17;;
14191;SDS011;7177;48.572;7.838;2024-01-27T12:54:36;6.43;;;3.97;;
14191;SDS011;7177;48.572;7.838;2024-01-27T12:57:01;9.30;;;4.30;;
14191;SDS011;7177;48.572;7.838;2024-01-27T12:59:27;6.57;;;4.47;;
14191;SDS011;7177;48.572;7.838;2024-01-27T13:01:53;9.03;;;3.70;;
14191;SDS011;7177;48.572;7.838;2024-01-27T13:04:19;7.90;;;4.20;;
14191;SDS011;7177;48.572;7.838;2024-01-27T13:06:45;11.20;;;4.30;;
14191;SDS011;7177;48.572;7.838;2024-01-27T13:09:10;7.67;;;4.03;;
14191;SDS011;7177;48.572;7.838;2024-01-27T13:11:39;9.67;;;5.07;;
14191;SDS011;7177;48.572;7.838;2024-01-27T13:14:04;9.73;;;4.70;;
14191;SDS011;7177;48.572;7.838;2024-01-27T13:16:32;11.03;;;5.27;;
14191;SDS011;7177;48.572;7.838;2024-01-27T13:18:57;9.60;;;4.77;;
14191;SDS011;7177;48.572;7.838;2024-01-27T13:21:23;8.80;;;4.67;;
14191;SDS011;7177;48.572;7.838;2024-01-27T13:23:48;9.57;;;4.93;;
14191;SDS011;7177;48.572;7.838;2024-01-27T13:26:14;7.63;;;4.40;;
14191;SDS011;7177;48.572;7.838;2024-01-27T13:28:40;9.13;;;4.30;;
14191;SDS011;7177;48.572;7.838;2024-01-27T13:31:06;12.43;;;4.80;;
14191;SDS011;7177;48.572;7.838;2024-01-27T13:33:32;8.10;;;4.10;;
14191;SDS011;7177;48.572;7.838;2024-01-27T13:35:59;8.73;;;4.50;;
14191;SDS011;7177;48.572;7.838;2024-01-27T13:38:24;11.40;;;4.47;;
14191;SDS011;7177;48.572;7.838;2024-01-27T13:40:51;10.30;;;3.70;;
14191;SDS011;7177;48.572;7.838;2024-01-27T13:43:16;8.63;;;3.90;;
14191;SDS011;7177;48.572;7.838;2024-01-27T13:45:42;7.67;;;3.93;;
14191;SDS011;7177;48.572;7.838;2024-01-27T13:48:08;10.40;;;4.00;;
14191;SDS011;7177;48.572;7.838;2024-01-27T13:50:34;8.07;;;3.80;;
14191;SDS011;7177;48.572;7.838;2024-01-27T13:52:59;9.23;;;3.57;;
14191;SDS011;7177;48.572;7.838;2024-01-27T13:55:25;9.60;;;3.30;;
14191;SDS011;7177;48.572;7.838;2024-01-27T13:57:51;6.37;;;3.20;;
14191;SDS011;7177;48.572;7.838;2024-01-27T14:00:16;7.80;;;3.70;;
14191;SDS011;7177;48.572;7.838;2024-01-27T14:02:42;13.03;;;3.90;;
14191;SDS011;7177;48.572;7.838;2024-01-27T14:05:08;7.90;;;3.10;;
14191;SDS011;7177;48.572;7.838;2024-01-27T14:07:34;6.77;;;3.10;;
14191;SDS011;7177;48.572;7.838;2024-01-27T14:10:00;7.30;;;2.77;;
14191;SDS011;7177;48.572;7.838;2024-01-27T14:12:26;4.93;;;2.30;;
14191;SDS011;7177;48.572;7.838;2024-01-27T14:14:51;4.87;;;2.27;;
14191;SDS011;7177;48.572;7.838;2024-01-27T14:17:17;7.30;;;2.90;;
14191;SDS011;7177;48.572;7.838;2024-01-27T14:19:45;5.33;;;2.40;;
14191;SDS011;7177;48.572;7.838;2024-01-27T14:22:11;7.37;;;2.40;;
14191;SDS011;7177;48.572;7.838;2024-01-27T14:24:37;10.03;;;2.70;;
14191;SDS011;7177;48.572;7.838;2024-01-27T14:27:04;8.97;;;2.53;;
14191;SDS011;7177;48.572;7.838;2024-01-27T14:29:33;13.33;;;5.50;;
14191;SDS011;7177;48.572;7.838;2024-01-27T14:32:00;8.13;;;3.63;;
14191;SDS011;7177;48.572;7.838;2024-01-27T14:34:25;10.40;;;2.97;;
14191;SDS011;7177;48.572;7.838;2024-01-27T14:36:51;4.97;;;2.80;;
14191;SDS011;7177;48.572;7.838;2024-01-27T14:39:17;9.83;;;2.87;;
14191;SDS011;7177;48.572;7.838;2024-01-27T14:41:43;6.10;;;2.60;;
14191;SDS011;7177;48.572;7.838;2024-01-27T14:44:08;6.03;;;2.87;;
14191;SDS011;7177;48.572;7.838;2024-01-27T14:46:36;10.80;;;3.50;;